Terminal Aerodrome Forecast
Issued by NWS Shreveport, LA

Home | Current Version | Previous Version | Text Only | Print | Product List | Glossary On
Versions: 1 2 3 4 5 6 7 8 9 10 11 12
000
FTUS44 KSHV 010500
TAFELD
TAF
KELD 010524Z 0106/0206 06005KT 6SM -RA BR SCT040 OVC050
      TEMPO 0107/0110 4SM -SHRA BR BKN025
     FM011000 04004KT 4SM -SHRA BR OVC020
     FM011200 05004KT 4SM -SHRA BR OVC010
     FM011600 06005KT P6SM OVC015
     FM012100 06006KT P6SM OVC023
     FM020100 03004KT P6SM OVC025=

USA.gov is the U.S. government's official web portal to all federal, state and local government web resources and services.